M I D A S
Marine Information and Data Acquisition System
Tripno 336 of the Zeeleeuw from 2002-09-17 06:37:24 to 2002-09-17 14:37:17
Back to CruiseResearch ActivitiesStationsMapUnderway DataData graphs

EquipmentUnitsComment
TimeDGPSUTC
LatitudeDGPSDM.mWGS84
LongitudeDGPSDM.mWGS84
TemperatureSBE03/SBE38deg celciusITS90
ConductivitySBE21S/mITS90
SalinitySBE21 Practical Salinity Units
ChlorophylAChelsea fluorimeterg/lCalibrated in Aceton
Missing or incorrect values are displayed as -999
Sea surface data collected by the RV Zeeleeuw from 2002-09-17 06:37:24 to 2002-09-17 14:37:17
Time Latitude Longitude Temperature Conductivity Salinity ChlorophylA
2002-09-17 06:38:26 51°13.66 2°55.961 -999 0.068093 0.354813  
2002-09-17 06:39:26 51°13.659 2°55.961 -999 0.068093 0.354824  
2002-09-17 06:40:27 51°13.665 2°55.933 -999 0.068093 0.354835  
2002-09-17 06:41:27 51°13.67 2°55.871 -999 0.068093 0.35484  
2002-09-17 06:42:27 51°13.673 2°55.8 -999 0.068093 0.354845  
2002-09-17 06:43:26 51°13.679 2°55.791 -999 0.068093 0.354851  
2002-09-17 06:44:26 51°13.685 2°55.792 -999 0.068093 0.354851  
2002-09-17 06:45:26 51°13.674 2°55.782 -999 0.068093 0.354856  
2002-09-17 06:46:26 51°13.724 2°55.732 -999 0.068093 0.354856  
2002-09-17 06:47:26 51°13.824 2°55.633 -999 0.068093 0.354851  
2002-09-17 06:48:26 51°13.951 2°55.544 -999 0.068093 0.354856  
2002-09-17 06:49:26 51°14.065 2°55.462 -999 0.068093 0.354845  
2002-09-17 06:50:26 51°14.178 2°55.369 32.664548 0.068093 0.354845  
2002-09-17 06:51:26 51°14.282 2°55.22 32.643144 0.068093 0.354845  
2002-09-17 06:52:25 51°14.363 2°54.991 32.081183 0.068093 0.35484  
2002-09-17 06:53:26 51°14.397 2°54.7 31.855742 0.068093 0.354856  
2002-09-17 06:54:26 51°14.372 2°54.39 32.345397 0.068093 0.354877  
2002-09-17 06:55:26 51°14.271 2°54.085 33.049047 0.068093 0.354888  
2002-09-17 06:56:26 51°14.16 2°53.784 32.44262 0.068093 0.354893  
2002-09-17 06:57:26 51°14.046 2°53.481 31.34402 0.068093 0.354926  
2002-09-17 06:58:26 51°13.941 2°53.17 31.905832 0.068093 0.354942  
2002-09-17 06:59:26 51°13.838 2°52.858 30.587329 0.068093 0.354985  
2002-09-17 07:00:26 51°13.734 2°52.546 31.813716 0.068093 0.355011  
2002-09-17 07:01:27 51°13.628 2°52.229 31.852022 0.068093 0.354963  
2002-09-17 07:02:27 51°13.525 2°51.916 31.120396 0.068093 0.355194  
2002-09-17 07:03:27 51°13.421 2°51.6 31.582165 0.068093 0.355135  
2002-09-17 07:04:26 51°13.318 2°51.291 30.6174 0.068093 0.355145  
2002-09-17 07:05:27 51°13.208 2°50.955 31.651221 0.068093 0.355183  
2002-09-17 07:06:28 51°13.096 2°50.613 31.118449 0.068093 0.355242  
2002-09-17 07:07:28 51°12.985 2°50.28 31.722284 0.067989 0.354731  
2002-09-17 07:08:27 51°12.876 2°49.956 31.638893 0.067989 0.354763  
2002-09-17 07:09:29 51°12.76 2°49.616 31.957437 0.067989 0.354812  
2002-09-17 07:10:27 51°12.654 2°49.296 31.57031 0.067989 0.354844  
2002-09-17 07:11:28 51°12.546 2°48.954 30.292259 0.067989 0.354892  
2002-09-17 07:12:27 51°12.438 2°48.629 30.497326 0.067989 0.354935  
2002-09-17 07:13:27 51°12.328 2°48.297 30.483548 0.067989 0.354967  
2002-09-17 07:14:28 51°12.218 2°47.962 30.998849 0.067989 0.35501  
2002-09-17 07:15:28 51°12.108 2°47.631 31.292312 0.067989 0.355053  
2002-09-17 07:16:28 51°11.999 2°47.3 32.709756 0.067989 0.355091  
2002-09-17 07:17:27 51°11.894 2°46.972 30.422903 0.067989 0.355145  
2002-09-17 07:18:27 51°11.785 2°46.643 32.418112 0.067989 0.355177  
2002-09-17 07:19:27 51°11.675 2°46.315 30.784165 0.067885 0.354665  
2002-09-17 07:20:28 51°11.568 2°45.976 30.899638 0.067885 0.354708  
2002-09-17 07:21:27 51°11.477 2°45.639 30.816776 0.067885 0.354751  
2002-09-17 07:22:26 51°11.386 2°45.301 32.298057 0.067885 0.3548  
2002-09-17 07:23:26 51°11.294 2°44.955 31.9966 0.067885 0.354853  
2002-09-17 07:24:27 51°11.2 2°44.606 31.329076 0.067885 0.354886  
2002-09-17 07:25:27 51°11.108 2°44.266 32.100169 0.067885 0.354939  
2002-09-17 07:26:27 51°11.014 2°43.927 31.286518 0.067885 0.354988  
2002-09-17 07:27:26 51°10.924 2°43.592 30.606479 0.067885 0.35502  
2002-09-17 07:28:28 51°10.845 2°43.229 30.415078 0.067885 0.355058  
2002-09-17 07:29:27 51°10.768 2°42.884 31.308858 0.067885 0.355101  
2002-09-17 07:30:28 51°10.688 2°42.531 32.045327 0.067885 0.355144  
2002-09-17 07:31:28 51°10.611 2°42.182 31.944333 0.067885 0.355192  
2002-09-17 07:32:28 51°10.536 2°41.832 31.502116 0.067781 0.354675  
2002-09-17 07:33:27 51°10.455 2°41.493 32.934146 0.067781 0.354723  
2002-09-17 07:34:27 51°10.374 2°41.149 30.976732 0.067781 0.35475  
2002-09-17 07:35:27 51°10.305 2°40.799 30.624644 0.067781 0.354799  
2002-09-17 07:36:28 51°10.235 2°40.444 31.859805 0.067781 0.354826  
2002-09-17 07:37:28 51°10.168 2°40.094 32.32031 0.067781 0.354847  
2002-09-17 07:38:28 51°10.092 2°39.749 32.699913 0.067781 0.354874  
2002-09-17 07:39:28 51°9.999 2°39.412 32.252367 0.067781 0.354923  
2002-09-17 07:40:28 51°9.91 2°39.073 32.514835 0.067781 0.354966  
2002-09-17 07:41:28 51°9.822 2°38.734 30.47878 0.067781 0.354987  
2002-09-17 07:42:27 51°9.732 2°38.405 31.032726 0.067781 0.355025  
2002-09-17 07:43:28 51°9.64 2°38.064 32.16461 0.067781 0.355074  
2002-09-17 07:44:27 51°9.55 2°37.737 32.176409 0.067781 0.355117  
2002-09-17 07:45:26 51°9.459 2°37.409 31.762945 0.067781 0.355165  
2002-09-17 07:46:27 51°9.366 2°37.066 32.222246 0.067677 0.354658  
2002-09-17 07:47:27 51°9.274 2°36.731 31.736185 0.067677 0.354706  
2002-09-17 07:48:27 51°9.184 2°36.393 30.359471 0.067677 0.354755  
2002-09-17 07:49:27 51°9.093 2°36.056 31.312153 0.067677 0.354798  
2002-09-17 07:50:28 51°8.998 2°35.715 31.721559 0.067677 0.354841  
2002-09-17 07:51:28 51°8.907 2°35.378 29.024402 0.067677 0.354901  
2002-09-17 07:52:28 51°8.815 2°35.04 30.963389 0.067677 0.354944  
2002-09-17 07:53:27 51°8.724 2°34.708 32.078745 0.067677 0.354998  
2002-09-17 07:54:28 51°8.628 2°34.367 31.807928 0.067677 0.35503  
2002-09-17 07:55:27 51°8.511 2°34.06 29.080928 0.067677 0.355079  
2002-09-17 07:56:27 51°8.38 2°33.756 30.998536 0.067677 0.355128  
2002-09-17 07:57:27 51°8.252 2°33.449 30.750771 0.067677 0.355171  
2002-09-17 07:58:28 51°8.119 2°33.144 30.27078 0.067574 0.354657  
2002-09-17 07:59:26 51°7.991 2°32.854 32.038903 0.067574 0.354711  
2002-09-17 08:00:27 51°7.856 2°32.555 31.682256 0.067574 0.354776  
2002-09-17 08:01:27 51°7.719 2°32.271 29.365556 0.067574 0.354814  
2002-09-17 08:02:27 51°7.578 2°31.993 31.212619 0.067574 0.354873  
2002-09-17 08:03:27 51°7.432 2°31.725 31.021413 0.067574 0.354922  
2002-09-17 08:04:30 51°7.277 2°31.442 31.604799 0.067574 0.354971  
2002-09-17 08:05:29 51°7.131 2°31.172 32.481879 0.067574 0.355025  
2002-09-17 08:06:30 51°6.957 2°30.93 32.067447 0.067574 0.355074  
2002-09-17 08:07:30 51°6.769 2°30.86 32.039693 0.067574 0.355106  
2002-09-17 08:08:30 51°6.609 2°30.89 31.03398 0.06747 0.354592  
2002-09-17 08:09:30 51°6.47 2°30.984 30.808887 0.06747 0.35463  
2002-09-17 08:10:30 51°6.426 2°31.193 32.591791 0.06747 0.354727  
2002-09-17 08:11:30 51°6.508 2°31.447 32.964499 0.06747 0.3547  
2002-09-17 08:12:30 51°6.6 2°31.714 30.974154 0.06747 0.354749  
2002-09-17 08:13:30 51°6.695 2°31.992 31.738634 0.06747 0.354781  
2002-09-17 08:14:30 51°6.776 2°32.269 31.44141 0.06747 0.354836  
2002-09-17 08:15:31 51°6.83 2°32.493 30.17505 0.06747 0.354874  
2002-09-17 08:16:31 51°6.871 2°32.702 30.549996 0.06747 0.354912  
2002-09-17 08:17:30 51°6.798 2°32.791 31.863145 0.06747 0.354982  
2002-09-17 08:18:29 51°6.788 2°32.796 33.157379 0.06747 0.354993  
2002-09-17 08:19:30 51°6.801 2°32.73 32.96752 0.06747 0.355015  
2002-09-17 08:20:30 51°6.826 2°32.637 31.968339 0.067366 0.35451  
2002-09-17 08:21:30 51°6.826 2°32.634 31.071355 0.067366 0.354543  
2002-09-17 08:22:30 51°6.82 2°32.63 22.357571 0.067366 0.354559  
2002-09-17 08:23:30 51°6.816 2°32.618 22.429949 0.067366 0.354592  
2002-09-17 08:24:30 51°6.814 2°32.606 22.497683 0.067366 0.354614  
2002-09-17 08:25:30 51°6.813 2°32.596 22.437417 0.067366 0.354635  
2002-09-17 08:26:30 51°6.812 2°32.59 22.473458 0.067366 0.354651  
2002-09-17 08:27:30 51°6.811 2°32.588 22.54201 0.067366 0.354662  
2002-09-17 08:28:30 51°6.81 2°32.588 22.644033 0.067366 0.354679  
2002-09-17 08:29:29 51°6.808 2°32.591 22.427016 0.067366 0.3547  
2002-09-17 08:30:30 51°6.809 2°32.594 22.498386 0.067366 0.354711  
2002-09-17 08:31:30 51°6.808 2°32.599 22.475295 0.067366 0.354733  
2002-09-17 08:32:31 51°6.809 2°32.599 22.61272 0.067366 0.354744  
2002-09-17 08:33:30 51°6.811 2°32.599 22.559811 0.067366 0.354771  
2002-09-17 08:34:30 51°6.81 2°32.598 22.602773 0.067366 0.354782  
2002-09-17 08:35:30 51°6.805 2°32.602 22.965384 0.067366 0.354793  
2002-09-17 08:36:30 51°6.798 2°32.607 22.724652 0.067366 0.354803  
2002-09-17 08:37:31 51°6.792 2°32.614 22.738943 0.067366 0.354825  
2002-09-17 08:38:30 51°6.79 2°32.619 22.753386 0.067366 0.354836  
2002-09-17 08:39:30 51°6.791 2°32.625 22.608351 0.067366 0.354858  
2002-09-17 08:40:30 51°6.794 2°32.631 22.590523 0.067366 0.35488  
2002-09-17 08:41:30 51°6.795 2°32.639 22.669253 0.067366 0.354896  
2002-09-17 08:42:30 51°6.797 2°32.647 22.654208 0.067366 0.354912  
2002-09-17 08:43:30 51°6.798 2°32.654 22.638146 0.067366 0.354928  
2002-09-17 08:44:30 51°6.797 2°32.654 22.848851 0.067366 0.354945  
2002-09-17 08:45:30 51°6.794 2°32.65 22.70732 0.067366 0.354956  
2002-09-17 08:46:31 51°6.79 2°32.638 22.694971 0.067366 0.354972  
2002-09-17 08:47:31 51°6.795 2°32.618 22.809381 0.067366 0.354988  
2002-09-17 08:48:30 51°6.812 2°32.603 22.763156 0.067366 0.354994  
2002-09-17 08:49:30 51°6.839 2°32.597 22.876992 0.067366 0.35501  
2002-09-17 08:50:31 51°6.873 2°32.609 22.799578 0.067366 0.355021  
2002-09-17 08:51:31 51°6.907 2°32.644 22.879751 0.067366 0.355026  
2002-09-17 08:52:30 51°6.933 2°32.71 22.833727 0.067366 0.355032  
2002-09-17 08:53:30 51°6.938 2°32.787 22.821011 0.067366 0.355032  
2002-09-17 08:54:30 51°6.881 2°32.833 22.981373 0.067366 0.355054  
2002-09-17 08:55:30 51°6.811 2°32.647 22.92726 0.067366 0.355048  
2002-09-17 08:56:31 51°6.765 2°32.394 22.97171 0.067366 0.355054  
2002-09-17 08:57:31 51°6.68 2°32.168 23.015862 0.067262 0.35451  
2002-09-17 08:58:31 51°6.613 2°31.918 23.069909 0.067366 0.35507  
2002-09-17 08:59:31 51°6.557 2°31.659 23.093082 0.067366 0.355086  
2002-09-17 09:00:30 51°6.511 2°31.398 23.146451 0.067366 0.355102  
2002-09-17 09:01:33 51°6.464 2°31.119 23.198311 0.067366 0.355119  
2002-09-17 09:02:31 51°6.53 2°30.888 23.189722 0.067366 0.355141  
2002-09-17 09:03:33 51°6.692 2°30.856 23.178694 0.067366 0.355162  
2002-09-17 09:04:33 51°6.841 2°30.929 23.421464 0.067366 0.355173  
2002-09-17 09:05:31 51°6.96 2°31.073 23.295893 0.067262 0.35463  
2002-09-17 09:06:34 51°7.112 2°31.28 23.250327 0.067262 0.354657  
2002-09-17 09:07:34 51°7.265 2°31.494 23.145212 0.067262 0.354679  
2002-09-17 09:08:33 51°7.415 2°31.71 23.419766 0.067262 0.354712  
2002-09-17 09:09:34 51°7.572 2°31.936 23.196841 0.067262 0.354739  
2002-09-17 09:10:31 51°7.707 2°32.167 23.446374 0.067262 0.354771  
2002-09-17 09:11:33 51°7.837 2°32.443 23.429138 0.067262 0.354815  
2002-09-17 09:12:37 51°7.95 2°32.687 23.223686 0.067262 0.354853  
2002-09-17 09:13:41 51°8.035 2°32.876 23.43338 0.067262 0.354891  
2002-09-17 09:14:49 51°8.103 2°33.057 23.401714 0.067262 0.354935  
2002-09-17 09:15:49 51°8.048 2°33.184 23.46669 0.067262 0.354995  
2002-09-17 09:16:50 51°8.046 2°33.214 23.449883 0.067262 0.355027  
2002-09-17 09:17:49 51°8.043 2°33.161 23.458788 0.067262 0.355066  
2002-09-17 09:18:46 51°8.084 2°33.045 23.480371 0.067262 0.355104  
2002-09-17 09:19:50 51°8.081 2°32.975 23.377251 0.067262 0.355115  
2002-09-17 09:20:55 51°8.073 2°32.979 23.426631 0.067262 0.355126  
2002-09-17 09:21:55 51°8.064 2°32.979 23.445834 0.067262 0.355147  
2002-09-17 09:22:55 51°8.06 2°32.975 23.527948 0.067262 0.355158  
2002-09-17 09:23:55 51°8.058 2°32.968 23.610623 0.067158 0.354598  
2002-09-17 09:24:54 51°8.056 2°32.96 23.693088 0.067158 0.354603  
2002-09-17 09:25:59 51°8.052 2°32.951 23.841902 0.067158 0.354603  
2002-09-17 09:26:57 51°8.048 2°32.944 23.512696 0.067262 0.355164  
2002-09-17 09:28:06 51°8.046 2°32.937 23.502449 0.067262 0.355153  
2002-09-17 09:29:10 51°8.047 2°32.933 23.839256 0.067158 0.354582  
2002-09-17 09:30:10 51°8.048 2°32.933 23.666263 0.067262 0.355136  
2002-09-17 09:31:14 51°8.048 2°32.934 23.592503 0.067262 0.355126  
2002-09-17 09:32:14 51°8.048 2°32.937 23.6112 0.067262 0.355104  
2002-09-17 09:33:14 51°8.046 2°32.941 23.913915 0.067262 0.355087  
2002-09-17 09:34:14 51°8.044 2°32.946 23.742982 0.067262 0.355066  
2002-09-17 09:35:19 51°8.043 2°32.95 23.702232 0.067262 0.355049  
2002-09-17 09:36:27 51°8.043 2°32.955 23.911731 0.067262 0.355027  
2002-09-17 09:37:27 51°8.042 2°32.959 23.708763 0.067262 0.355011  
2002-09-17 09:38:26 51°8.042 2°32.962 23.824069 0.067262 0.354989  
2002-09-17 09:39:26 51°8.042 2°32.965 23.900928 0.067262 0.354973  
2002-09-17 09:40:32 51°8.043 2°32.968 23.984173 0.067262 0.354957  
2002-09-17 09:41:31 51°8.046 2°32.97 23.875177 0.067262 0.354935  
2002-09-17 09:42:31 51°8.049 2°32.973 23.891349 0.067262 0.354908  
2002-09-17 09:43:32 51°8.053 2°32.976 23.907824 0.067262 0.354891  
2002-09-17 09:44:34 51°8.058 2°32.98 23.833696 0.067262 0.354864  
2002-09-17 09:45:34 51°8.065 2°32.984 24.163853 0.067262 0.354842  
2002-09-17 09:46:35 51°8.073 2°32.989 24.053674 0.067262 0.35481  
2002-09-17 09:47:34 51°8.08 2°32.992 23.948153 0.067262 0.354788  
2002-09-17 09:48:34 51°8.089 2°32.987 23.963428 0.067262 0.354761  
2002-09-17 09:49:39 51°8.11 2°32.975 24.010918 0.067262 0.354739  
2002-09-17 09:50:38 51°8.141 2°32.979 23.963658 0.067366 0.355271  
2002-09-17 09:51:41 51°8.177 2°33.011 23.980193 0.067366 0.355228  
2002-09-17 09:52:45 51°8.202 2°33.062 24.339928 0.067366 0.355211  
2002-09-17 09:53:43 51°8.215 2°33.115 24.260446 0.067366 0.355184  
2002-09-17 09:54:46 51°8.217 2°33.172 24.055701 0.067366 0.355162  
2002-09-17 09:55:50 51°8.211 2°33.223 24.100685 0.067366 0.355146  
2002-09-17 09:56:58 51°8.196 2°33.278 24.207626 0.067366 0.35513  
2002-09-17 09:57:58 51°8.202 2°33.37 24.221473 0.067366 0.355124  
2002-09-17 09:58:57 51°8.255 2°33.426 24.236767 0.067366 0.355097  
2002-09-17 09:59:58 51°8.301 2°33.386 24.282669 0.067366 0.355086  
2002-09-17 10:00:58 51°8.316 2°33.289 24.14041 0.067366 0.35507  
2002-09-17 10:01:59 51°8.334 2°33.167 24.310447 0.067366 0.355064  
2002-09-17 10:02:59 51°8.358 2°33.044 24.260217 0.067366 0.355048  
2002-09-17 10:03:59 51°8.418 2°32.948 24.21167 0.067366 0.355037  
2002-09-17 10:05:00 51°8.484 2°32.846 24.222236 0.067366 0.355015  
2002-09-17 10:05:59 51°8.543 2°32.739 24.32816 0.067366 0.35501  
2002-09-17 10:06:58 51°8.582 2°32.628 24.309037 0.067366 0.354999  
2002-09-17 10:07:59 51°8.578 2°32.556 24.28949 0.067366 0.354983  
2002-09-17 10:08:59 51°8.565 2°32.52 24.363269 0.067366 0.354972  
2002-09-17 10:10:00 51°8.556 2°32.493 24.124599 0.067366 0.354967  
2002-09-17 10:10:59 51°8.548 2°32.469 24.418525 0.067366 0.354961  
2002-09-17 10:11:59 51°8.536 2°32.449 24.306599 0.067366 0.354934  
2002-09-17 10:12:59 51°8.524 2°32.427 24.381198 0.067366 0.354901  
2002-09-17 10:13:59 51°8.52 2°32.402 24.332007 0.06747 0.355444  
2002-09-17 10:15:00 51°8.522 2°32.379 24.344041 0.06747 0.355417  
2002-09-17 10:15:59 51°8.52 2°32.36 24.387934 0.06747 0.355379  
2002-09-17 10:16:59 51°8.515 2°32.344 24.306066 0.06747 0.355352  
2002-09-17 10:17:59 51°8.512 2°32.331 24.28709 0.06747 0.355324  
2002-09-17 10:18:59 51°8.51 2°32.323 24.392653 0.06747 0.355286  
2002-09-17 10:19:59 51°8.509 2°32.317 24.278438 0.06747 0.355243  
2002-09-17 10:20:59 51°8.508 2°32.314 24.47621 0.06747 0.35521  
2002-09-17 10:21:59 51°8.507 2°32.312 24.519491 0.06747 0.355167  
2002-09-17 10:22:59 51°8.507 2°32.311 24.468418 0.06747 0.355123  
2002-09-17 10:23:59 51°8.509 2°32.312 24.418449 0.06747 0.355091  
2002-09-17 10:24:58 51°8.511 2°32.313 24.429518 0.06747 0.355042  
2002-09-17 10:26:00 51°8.513 2°32.316 24.471345 0.06747 0.354998  
2002-09-17 10:26:59 51°8.516 2°32.318 24.450929 0.06747 0.35495  
2002-09-17 10:27:59 51°8.518 2°32.318 24.398399 0.06747 0.354912  
2002-09-17 10:28:59 51°8.518 2°32.314 24.626425 0.067574 0.355432  
2002-09-17 10:29:59 51°8.52 2°32.309 24.387591 0.067574 0.355388  
2002-09-17 10:30:59 51°8.522 2°32.301 24.615917 0.067574 0.35535  
2002-09-17 10:32:02 51°8.523 2°32.292 24.65684 0.067574 0.355296  
2002-09-17 10:33:03 51°8.526 2°32.283 24.542281 0.067574 0.355242  
2002-09-17 10:34:02 51°8.528 2°32.273 24.677047 0.067574 0.355198  
2002-09-17 10:35:03 51°8.529 2°32.264 24.468608 0.067574 0.35515  
2002-09-17 10:36:02 51°8.532 2°32.257 24.571668 0.067574 0.355101  
2002-09-17 10:37:02 51°8.534 2°32.251 24.675114 0.067574 0.355052  
2002-09-17 10:38:02 51°8.537 2°32.248 24.776785 0.067574 0.355003  
2002-09-17 10:39:02 51°8.541 2°32.24 24.600019 0.067677 0.355518  
2002-09-17 10:40:02 51°8.551 2°32.227 24.57759 0.067677 0.355469  
2002-09-17 10:41:02 51°8.566 2°32.214 24.648498 0.067677 0.35542  
2002-09-17 10:42:08 51°8.588 2°32.206 24.751229 0.067677 0.35536  
2002-09-17 10:43:07 51°8.612 2°32.206 24.79079 0.067677 0.355317  
2002-09-17 10:44:06 51°8.638 2°32.215 24.519111 0.067677 0.355257  
2002-09-17 10:45:13 51°8.667 2°32.239 24.744791 0.067677 0.355203  
2002-09-17 10:46:13 51°8.691 2°32.274 24.691336 0.067677 0.355165  
2002-09-17 10:47:12 51°8.712 2°32.318 24.730399 0.067677 0.355117  
2002-09-17 10:48:13 51°8.735 2°32.363 24.862814 0.067677 0.355095  
2002-09-17 10:49:10 51°8.759 2°32.399 24.683983 0.067677 0.355074  
2002-09-17 10:50:13 51°8.788 2°32.432 24.692435 0.067781 0.355619  
2002-09-17 10:51:13 51°8.818 2°32.46 24.886328 0.067781 0.355614  
2002-09-17 10:52:11 51°8.846 2°32.491 24.676327 0.067781 0.355592  
2002-09-17 10:53:12 51°8.876 2°32.527 24.807554 0.067781 0.355582  
2002-09-17 10:54:13 51°8.904 2°32.567 24.690919 0.067781 0.355576  
2002-09-17 10:55:10 51°8.932 2°32.604 24.666812 0.067781 0.355549  
2002-09-17 10:56:11 51°8.961 2°32.641 24.674166 0.067781 0.355533  
2002-09-17 10:57:13 51°8.991 2°32.676 24.774286 0.067781 0.355533  
2002-09-17 10:58:10 51°9.018 2°32.705 24.780797 0.067781 0.355527  
2002-09-17 10:59:11 51°9.048 2°32.736 24.818639 0.067781 0.355527  
2002-09-17 11:00:11 51°9.077 2°32.771 24.763194 0.067781 0.355522  
2002-09-17 11:01:13 51°9.107 2°32.804 24.738353 0.067781 0.355517  
2002-09-17 11:02:13 51°9.133 2°32.835 24.713011 0.067781 0.355527  
2002-09-17 11:03:11 51°9.155 2°32.867 24.874912 0.067781 0.355522  
2002-09-17 11:04:13 51°9.179 2°32.882 24.912743 0.067781 0.355522  
2002-09-17 11:05:13 51°9.203 2°32.869 24.854949 0.067781 0.355522  
2002-09-17 11:06:13 51°9.212 2°32.822 24.952707 0.067781 0.355522  
2002-09-17 11:07:13 51°9.201 2°32.775 24.802862 0.067781 0.355522  
2002-09-17 11:08:17 51°9.177 2°32.739 24.651304 0.067781 0.355511  
2002-09-17 11:09:17 51°9.15 2°32.715 24.778905 0.067781 0.355495  
2002-09-17 11:10:17 51°9.127 2°32.691 24.81531 0.067781 0.355468  
2002-09-17 11:11:17 51°9.104 2°32.682 24.883342 0.067781 0.355446  
2002-09-17 11:12:17 51°9.081 2°32.682 24.828967 0.067781 0.355414  
2002-09-17 11:13:15 51°9.061 2°32.688 24.773681 0.067781 0.355387  
2002-09-17 11:14:17 51°9.041 2°32.697 24.933672 0.067781 0.355365  
2002-09-17 11:15:17 51°9.03 2°32.707 24.782917 0.067781 0.355344  
2002-09-17 11:16:17 51°9.023 2°32.717 24.81811 0.067781 0.355327  
2002-09-17 11:17:17 51°9.029 2°32.722 24.853361 0.067781 0.355317  
2002-09-17 11:18:17 51°9.047 2°32.728 24.82647 0.067781 0.355311  
2002-09-17 11:19:17 51°9.061 2°32.732 24.79851 0.067781 0.355295  
2002-09-17 11:20:17 51°9.071 2°32.737 25.111441 0.067781 0.355284  
2002-09-17 11:21:17 51°9.077 2°32.742 24.929366 0.067781 0.355279  
2002-09-17 11:22:17 51°9.078 2°32.747 24.903448 0.067781 0.355273  
2002-09-17 11:23:17 51°9.078 2°32.752 24.940169 0.067781 0.355257  
2002-09-17 11:24:15 51°9.075 2°32.758 24.885307 0.067781 0.355252  
2002-09-17 11:25:17 51°9.071 2°32.764 24.919922 0.067781 0.355252  
2002-09-17 11:26:17 51°9.068 2°32.77 24.95452 0.067781 0.35523  
2002-09-17 11:27:17 51°9.071 2°32.775 25.082383 0.067781 0.355225  
2002-09-17 11:28:15 51°9.082 2°32.779 24.933597 0.067885 0.355781  
2002-09-17 11:29:17 51°9.105 2°32.787 24.907416 0.067885 0.355775  
2002-09-17 11:30:17 51°9.114 2°32.79 24.945834 0.067781 0.355203  
2002-09-17 11:31:17 51°9.093 2°32.745 25.136457 0.067885 0.355759  
2002-09-17 11:32:17 51°9.073 2°32.696 24.925626 0.067885 0.355748  
2002-09-17 11:33:17 51°9.062 2°32.656 24.775801 0.067885 0.355732  
2002-09-17 11:34:15 51°9.057 2°32.63 24.966452 0.067885 0.355711  
2002-09-17 11:35:17 51°9.056 2°32.613 24.941869 0.067885 0.355684  
2002-09-17 11:36:17 51°9.056 2°32.608 24.915464 0.067885 0.355657  
2002-09-17 11:37:17 51°9.054 2°32.621 24.764443 0.067885 0.355646  
2002-09-17 11:38:17 51°9.049 2°32.671 24.952405 0.067885 0.355603  
2002-09-17 11:39:15 51°9.05 2°32.713 25.051504 0.067885 0.355575  
2002-09-17 11:40:17 51°9.052 2°32.746 24.840503 0.067885 0.355548  
2002-09-17 11:41:17 51°9.053 2°32.764 24.938507 0.067885 0.355532  
2002-09-17 11:42:17 51°9.051 2°32.769 24.848937 0.067885 0.355511  
2002-09-17 11:43:17 51°9.047 2°32.77 25.192598 0.067885 0.355489  
2002-09-17 11:44:17 51°9.042 2°32.766 24.918751 0.067885 0.355451  
2002-09-17 11:45:17 51°9.042 2°32.717 25.171367 0.067885 0.35543  
2002-09-17 11:46:17 51°9.066 2°32.678 25.080574 0.049693 0.344828  
2002-09-17 11:47:17 51°9.086 2°32.658 24.900349 0.067885 0.355327  
2002-09-17 11:48:17 51°9.098 2°32.646 25.029288 0.067989 0.355834  
2002-09-17 11:49:17 51°9.106 2°32.638 25.032872 0.067885 0.355236  
2002-09-17 11:50:17 51°9.111 2°32.634 25.097611 0.067989 0.355758  
2002-09-17 11:51:17 51°9.11 2°32.635 25.069867 0.067989 0.355721  
2002-09-17 11:52:17 51°9.107 2°32.639 25.041736 0.067989 0.355678  
2002-09-17 11:53:17 51°9.103 2°32.649 25.044791 0.067989 0.355624  
2002-09-17 11:54:17 51°9.1 2°32.66 25.078312 0.067989 0.355581  
2002-09-17 11:55:17 51°9.097 2°32.67 24.988573 0.067989 0.355543  
2002-09-17 11:56:17 51°9.097 2°32.679 25.025478 0.067989 0.355489  
2002-09-17 11:57:17 51°9.096 2°32.685 25.031023 0.067989 0.35543  
2002-09-17 11:58:17 51°9.098 2°32.672 25.129827 0.067989 0.355403  
2002-09-17 11:59:17 51°9.109 2°32.645 24.917239 0.067989 0.355354  
2002-09-17 12:00:17 51°9.13 2°32.619 25.198696 0.068093 0.35586  
2002-09-17 12:01:17 51°9.156 2°32.601 24.985365 0.068093 0.355817  
2002-09-17 12:02:16 51°9.185 2°32.589 25.111855 0.068093 0.355769  
2002-09-17 12:03:17 51°9.219 2°32.591 25.083703 0.068093 0.355731  
2002-09-17 12:04:17 51°9.245 2°32.621 25.208029 0.068093 0.35571  
2002-09-17 12:05:17 51°9.252 2°32.664 25.24298 0.068093 0.355672  
2002-09-17 12:06:17 51°9.241 2°32.703 24.998273 0.068093 0.35565  
2002-09-17 12:07:17 51°9.218 2°32.838 24.997556 0.068093 0.35565  
2002-09-17 12:08:17 51°9.244 2°33.103 25.215667 0.068093 0.355618  
2002-09-17 12:09:17 51°9.283 2°33.442 25.005481 0.068093 0.355597  
2002-09-17 12:10:17 51°9.295 2°33.819 24.914595 0.068093 0.355586  
2002-09-17 12:11:17 51°9.299 2°34.199 25.110386 0.068093 0.355564  
2002-09-17 12:12:15 51°9.273 2°34.565 25.144743 0.068093 0.355559  
2002-09-17 12:13:17 51°9.261 2°34.959 25.150694 0.068093 0.355543  
2002-09-17 12:14:17 51°9.243 2°35.334 25.154874 0.068093 0.355532  
2002-09-17 12:15:17 51°9.225 2°35.71 25.128395 0.068093 0.355532  
2002-09-17 12:16:17 51°9.206 2°36.088 25.042188 0.068093 0.355527  
2002-09-17 12:17:19 51°9.178 2°36.477 25.23335 0.068093 0.355532  
2002-09-17 12:18:19 51°9.177 2°36.746 25.172007 0.068093 0.355543  
2002-09-17 12:19:19 51°9.22 2°36.911 25.147643 0.068093 0.355521  
2002-09-17 12:20:18 51°9.257 2°37.038 25.063231 0.068093 0.355532  
2002-09-17 12:21:19 51°9.18 2°37.123 25.005745 0.068093 0.35557  
2002-09-17 12:22:19 51°9.122 2°37.182 25.129902 0.068093 0.355564  
2002-09-17 12:23:18 51°9.107 2°37.194 25.419436 0.068093 0.355575  
2002-09-17 12:24:20 51°9.112 2°37.194 25.387309 0.068093 0.355548  
2002-09-17 12:25:19 51°9.105 2°37.189 25.08276 0.068093 0.355537  
2002-09-17 12:26:17 51°9.096 2°37.183 25.48702 0.068093 0.355548  
2002-09-17 12:27:19 51°9.086 2°37.176 25.119956 0.068093 0.355521  
2002-09-17 12:28:18 51°9.075 2°37.169 25.214426 0.068093 0.355505  
2002-09-17 12:29:19 51°9.065 2°37.162 25.215065 0.068093 0.355494  
2002-09-17 12:30:19 51°9.056 2°37.154 25.153895 0.068093 0.355473  
2002-09-17 12:31:19 51°9.047 2°37.146 25.122556 0.068093 0.355441  
2002-09-17 12:32:19 51°9.034 2°37.13 25.03091 0.068093 0.355398  
2002-09-17 12:33:19 51°9.022 2°37.103 25.09648 0.068197 0.355925  
2002-09-17 12:34:19 51°9.014 2°37.076 25.192598 0.068197 0.355876  
2002-09-17 12:35:19 51°9.009 2°37.048 25.195195 0.068197 0.355828  
2002-09-17 12:36:19 51°9.028 2°36.986 25.199636 0.068197 0.355801  
2002-09-17 12:37:19 51°9.097 2°37.013 24.986686 0.068197 0.355753  
2002-09-17 12:38:18 51°9.131 2°37.142 25.140939 0.068197 0.355693  
2002-09-17 12:39:18 51°9.151 2°37.208 25.300054 0.068197 0.355656  
2002-09-17 12:40:18 51°9.15 2°37.217 25.11811 0.068197 0.355613  
2002-09-17 12:41:19 51°9.145 2°37.221 25.059234 0.068197 0.355581  
2002-09-17 12:42:19 51°9.139 2°37.222 25.155213 0.068197 0.355559  
2002-09-17 12:43:19 51°9.131 2°37.222 25.404463 0.068197 0.355532  
2002-09-17 12:44:19 51°9.122 2°37.221 25.2218 0.068197 0.355495  
2002-09-17 12:45:18 51°9.111 2°37.217 25.288628 0.068197 0.355479  
2002-09-17 12:46:22 51°9.097 2°37.209 25.174981 0.068197 0.355447  
2002-09-17 12:47:22 51°9.083 2°37.196 25.337027 0.068301 0.355978  
2002-09-17 12:48:22 51°9.069 2°37.174 25.191356 0.068301 0.355951  
2002-09-17 12:49:23 51°9.057 2°37.144 25.073336 0.068301 0.355914  
2002-09-17 12:50:23 51°9.051 2°37.111 25.171367 0.068301 0.355876  
2002-09-17 12:51:23 51°9.048 2°37.076 25.361065 0.068301 0.355833  
2002-09-17 12:52:23 51°9.049 2°37.041 25.333496 0.068301 0.355796  
2002-09-17 12:53:23 51°9.08 2°36.989 25.277425 0.068301 0.355774  
2002-09-17 12:54:23 51°9.135 2°37.059 25.186877 0.068301 0.355726  
2002-09-17 12:55:23 51°9.15 2°37.214 25.284004 0.068301 0.355667  
2002-09-17 12:56:23 51°9.138 2°37.26 25.165606 0.068301 0.355645  
2002-09-17 12:57:23 51°9.138 2°37.253 25.260016 0.068301 0.355603  
2002-09-17 12:58:23 51°9.137 2°37.245 25.357723 0.068301 0.355565  
2002-09-17 12:59:23 51°9.134 2°37.239 25.452786 0.068301 0.355533  
2002-09-17 13:00:23 51°9.129 2°37.232 25.423863 0.068301 0.355501  
2002-09-17 13:01:23 51°9.123 2°37.224 25.273139 0.068405 0.356037  
2002-09-17 13:02:23 51°9.115 2°37.214 25.276636 0.068405 0.356005  
2002-09-17 13:03:21 51°9.107 2°37.203 25.371466 0.068405 0.355957  
2002-09-17 13:04:27 51°9.096 2°37.188 25.343225 0.068405 0.355898  
2002-09-17 13:05:27 51°9.085 2°37.167 25.346343 0.068405 0.355839  
2002-09-17 13:06:28 51°9.075 2°37.136 25.227481 0.068405 0.355796  
2002-09-17 13:07:28 51°9.069 2°37.1 25.447535 0.068405 0.355732  
2002-09-17 13:08:28 51°9.068 2°37.061 25.296183 0.068405 0.355678  
2002-09-17 13:09:26 51°9.073 2°37.024 25.546939 0.068405 0.355619  
2002-09-17 13:10:27 51°9.081 2°36.988 25.275809 0.068509 0.356118  
2002-09-17 13:11:28 51°9.093 2°36.957 25.281636 0.068509 0.356059  
2002-09-17 13:12:27 51°9.107 2°36.933 25.255805 0.068509 0.356016  
2002-09-17 13:13:31 51°9.123 2°36.917 25.292236 0.068509 0.355962  
2002-09-17 13:14:29 51°9.135 2°36.918 25.296935 0.068509 0.35592  
2002-09-17 13:15:31 51°9.143 2°36.931 25.42315 0.068509 0.355898  
2002-09-17 13:16:31 51°9.142 2°36.944 25.364369 0.068509 0.355855  
2002-09-17 13:17:31 51°9.139 2°36.955 25.489832 0.068509 0.355829  
2002-09-17 13:18:32 51°9.131 2°36.965 25.555142 0.068509 0.355797  
2002-09-17 13:19:30 51°9.123 2°36.974 25.281749 0.068613 0.356326  
2002-09-17 13:20:32 51°9.115 2°36.981 25.225074 0.068613 0.356294  
2002-09-17 13:21:32 51°9.106 2°36.987 25.353329 0.068613 0.356268  
2002-09-17 13:22:31 51°9.096 2°36.991 25.358624 0.068613 0.356235  
2002-09-17 13:23:31 51°9.085 2°36.994 25.330866 0.068613 0.356209  
2002-09-17 13:24:31 51°9.072 2°36.993 25.517979 0.068613 0.356177  
2002-09-17 13:25:31 51°9.059 2°36.989 25.212469 0.068613 0.356161  
2002-09-17 13:26:30 51°9.045 2°36.981 25.247606 0.068613 0.356129  
2002-09-17 13:27:31 51°9.031 2°36.971 25.43268 0.068613 0.356091  
2002-09-17 13:28:38 51°9.014 2°36.957 25.343376 0.068613 0.356059  
2002-09-17 13:29:38 51°8.994 2°36.937 25.314973 0.068613 0.356032  
2002-09-17 13:30:37 51°8.974 2°36.903 25.409679 0.068613 0.356011  
2002-09-17 13:31:43 51°8.963 2°36.851 25.382392 0.068613 0.355963  
2002-09-17 13:32:43 51°8.961 2°36.8 25.385095 0.068613 0.35592  
2002-09-17 13:33:43 51°8.99 2°36.719 25.511459 0.068613 0.355862  
2002-09-17 13:34:43 51°9.153 2°36.684 25.454249 0.068717 0.356385  
2002-09-17 13:35:43 51°9.242 2°36.959 25.485446 0.068717 0.356321  
2002-09-17 13:36:43 51°9.243 2°37.311 25.428816 0.068717 0.356295  
2002-09-17 13:37:47 51°9.282 2°37.681 25.373757 0.068717 0.356257  
2002-09-17 13:38:47 51°9.314 2°38.03 25.563831 0.068717 0.356236  
2002-09-17 13:39:48 51°9.344 2°38.384 25.352164 0.068717 0.35622  
2002-09-17 13:40:47 51°9.382 2°38.723 25.450423 0.068717 0.356193  
2002-09-17 13:41:53 51°9.421 2°39.101 25.517192 0.068717 0.356172  
2002-09-17 13:42:51 51°9.463 2°39.432 25.463662 0.068717 0.356156  
2002-09-17 13:43:53 51°9.52 2°39.778 25.441871 0.068717 0.356135  
2002-09-17 13:44:51 51°9.582 2°40.096 25.660198 0.068717 0.356113  
2002-09-17 13:45:53 51°9.635 2°40.441 25.388849 0.068717 0.356097  
2002-09-17 13:46:53 51°9.683 2°40.773 25.4227 0.068717 0.356076  
2002-09-17 13:47:53 51°9.734 2°41.102 25.24219 0.068717 0.35606  
2002-09-17 13:48:53 51°9.813 2°41.416 25.525398 0.068717 0.356055  
2002-09-17 13:49:53 51°9.919 2°41.712 25.713286 0.068717 0.356039  
2002-09-17 13:50:53 51°10.019 2°42.015 25.591987 0.068717 0.356044  
2002-09-17 13:51:53 51°10.131 2°42.306 25.53941 0.068717 0.356023  
2002-09-17 13:52:53 51°10.242 2°42.599 25.355845 0.068821 0.356562  
2002-09-17 13:53:53 51°10.347 2°42.898 25.577236 0.068821 0.356562  
2002-09-17 13:54:53 51°10.453 2°43.196 28.585472 0.068717 0.356012  
2002-09-17 13:55:53 51°10.56 2°43.493 28.023391 0.068717 0.355991  
2002-09-17 13:56:53 51°10.665 2°43.795 28.475661 0.068717 0.355985  
2002-09-17 13:57:51 51°10.772 2°44.084 28.275271 0.068717 0.35598  
2002-09-17 13:58:58 51°10.89 2°44.424 28.305988 0.068717 0.355975  
2002-09-17 13:59:58 51°10.998 2°44.729 28.248044 0.068717 0.35598  
2002-09-17 14:00:58 51°11.105 2°45.037 28.43309 0.068717 0.355975  
2002-09-17 14:01:58 51°11.211 2°45.347 29.431781 0.068821 0.35653  
2002-09-17 14:02:58 51°11.322 2°45.655 28.322875 0.068717 0.355985  
2002-09-17 14:03:58 51°11.429 2°45.967 28.207692 0.068717 0.355975  
2002-09-17 14:04:58 51°11.54 2°46.276 28.388764 0.068717 0.355969  
2002-09-17 14:05:58 51°11.649 2°46.585 28.41929 0.068717 0.355959  
2002-09-17 14:06:58 51°11.757 2°46.895 28.661906 0.068717 0.355964  
2002-09-17 14:07:58 51°11.859 2°47.21 28.341598 0.068717 0.355964  
2002-09-17 14:08:58 51°11.964 2°47.523 28.258698 0.068717 0.355953  
2002-09-17 14:09:58 51°12.071 2°47.835 28.228467 0.068717 0.355964  
2002-09-17 14:10:58 51°12.178 2°48.148 28.08531 0.068717 0.355964  
2002-09-17 14:11:58 51°12.282 2°48.462 29.117672 0.068717 0.355959  
2002-09-17 14:12:58 51°12.391 2°48.771 28.181345 0.068717 0.355964  
2002-09-17 14:13:58 51°12.507 2°49.074 28.126415 0.068717 0.355959  
2002-09-17 14:14:58 51°12.62 2°49.38 28.633095 0.068717 0.355964  
2002-09-17 14:15:58 51°12.732 2°49.687 28.605963 0.068717 0.355969  
2002-09-17 14:16:58 51°12.844 2°49.994 28.671711 0.068717 0.355985  
2002-09-17 14:17:58 51°12.96 2°50.295 28.643946 0.068717 0.355985  
2002-09-17 14:18:58 51°13.072 2°50.6 28.058485 0.068717 0.355991  
2002-09-17 14:19:58 51°13.19 2°50.899 28.649191 0.068717 0.355985  
2002-09-17 14:20:58 51°13.309 2°51.195 29.035267 0.068717 0.356001  
2002-09-17 14:21:58 51°13.429 2°51.491 27.979873 0.068717 0.355991  
2002-09-17 14:22:58 51°13.548 2°51.786 28.309019 0.068717 0.355996  
2002-09-17 14:23:58 51°13.666 2°52.085 27.838017 0.068717 0.355996  
2002-09-17 14:24:58 51°13.784 2°52.382 28.049324 0.068717 0.355991  
2002-09-17 14:25:58 51°13.901 2°52.679 27.934262 0.068717 0.35598  
2002-09-17 14:26:58 51°14.019 2°52.975 27.906076 0.068717 0.355975  
2002-09-17 14:27:58 51°14.14 2°53.267 28.088133 0.068717 0.355975  
2002-09-17 14:28:58 51°14.259 2°53.559 28.061309 0.068613 0.355414  
2002-09-17 14:29:58 51°14.327 2°53.882 27.944053 0.068613 0.35542  
2002-09-17 14:30:58 51°14.379 2°54.199 27.945069 0.068717 0.355959  
2002-09-17 14:31:58 51°14.402 2°54.51 28.126488 0.068717 0.355964  
2002-09-17 14:32:58 51°14.394 2°54.821 28.778295 0.068613 0.355404  
2002-09-17 14:33:57 51°14.335 2°55.107 27.803074 0.068613 0.35542  
2002-09-17 14:34:57 51°14.24 2°55.314 28.340336 0.068613 0.355414  
2002-09-17 14:35:58 51°14.138 2°55.408 28.04639 0.068613 0.35542  
2002-09-17 14:36:58 51°14.047 2°55.474 28.196706 0.068613 0.355414